Roseau, MN

6:11 PM CST on February 27, 2017 (GMT -0600)
Roseau Municipal-Billberg

Weather History for KROX - September, 2014

Change the Weather History Date:

Friday, September 5, 2014

  Actual Average Record
Temperature  
Mean Temperature 60 °F -  
Max Temperature 69 °F 72 °F 93 °F (1978)
Min Temperature 50 °F 47 °F 32 °F (1984)
Degree Days  
Heating Degree Days 6    
Growing Degree Days 10 (Base 50)    
Moisture  
Dew Point 48 °F    
Average Humidity 73    
Maximum Humidity 82    
Minimum Humidity 43    
Precipitation  
Precipitation 0.19 in - - ()
Sea Level Pressure  
Sea Level Pressure 30.04 in    
Wind  
Wind Speed 12 mph (West)    
Max Wind Speed 22 mph    
Max Gust Speed 28 mph    
Visibility 10 miles    
Events Rain    
Averages and records for this station are not official NWS values.
T = Trace of Precipitation, MM = Missing Value Source: NWS Daily Summary

Daily Weather History Graph

Daily Weather History Graph

Search for Another Location

Airport or City:

Trip Planner

Search our weather history database for the weather conditions in past years. The results will help you decide how hot, cold, wet, or windy it might be!

Date:

Astronomy

Sep. 05, 2014 Rise Set
Actual Time 6:45 AM CDT 7:56 PM CDT
Civil Twilight 6:12 AM CDT 8:28 PM CDT
Nautical Twilight 5:33 AM CDT 9:07 PM CDT
Astronomical Twilight 4:51 AM CDT 9:49 PM CDT
Moon 5:38 PM CDT (9/5) 2:26 AM CDT (9/5)
Length of Visible Light 14h 16m
Length of Day
13h 11m
Waxing Gibbous, 84% of the Moon is Illuminated
Sep 5
Waxing Gibbous
Sep 8
Full
Sep 15
Last Quarter
Sep 24
New
Oct 1
First Quarter

Hourly Weather History & Observations

Time (CDT) Temp. Dew Point Humidity Pressure Visibility Wind Dir Wind Speed Gust Speed Precip Events Conditions
12:14 AM 55.4 °F 50.0 °F 82% 29.85 in 10.0 mi WNW 16.1 mph 24.2 mph N/A   Overcast
12:34 AM 55.4 °F 48.2 °F 77% 29.87 in 10.0 mi WNW 16.1 mph 25.3 mph N/A   Overcast
12:43 AM 55.4 °F 48.2 °F 77% 29.87 in 10.0 mi NW 19.6 mph 26.5 mph N/A   Overcast
1:15 AM 53.6 °F 48.2 °F 82% 29.89 in 3.0 mi NW 18.4 mph 24.2 mph N/A Rain Light Rain
1:34 AM 51.8 °F 46.4 °F 82% 29.91 in 3.0 mi WNW 16.1 mph 19.6 mph N/A Rain Light Rain
1:54 AM 51.8 °F 46.4 °F 82% 29.92 in 10.0 mi WNW 16.1 mph 24.2 mph N/A   Overcast
2:15 AM 51.8 °F 46.4 °F 82% 29.93 in 10.0 mi WNW 13.8 mph 20.7 mph N/A   Mostly Cloudy
2:34 AM 51.8 °F 46.4 °F 82% 29.95 in 10.0 mi WNW 12.7 mph - N/A   Mostly Cloudy
2:54 AM 51.8 °F 46.4 °F 82% 29.95 in 10.0 mi NW 15.0 mph - N/A   Overcast
3:15 AM 50.0 °F 44.6 °F 82% 29.96 in 10.0 mi WNW 15.0 mph 19.6 mph N/A   Mostly Cloudy
3:34 AM 50.0 °F 44.6 °F 82% 29.98 in 10.0 mi NW 12.7 mph - N/A   Clear
3:55 AM 50.0 °F 44.6 °F 82% 29.98 in 10.0 mi WNW 11.5 mph - N/A   Clear
4:14 AM 50.0 °F 44.6 °F 82% 29.99 in 10.0 mi WNW 10.4 mph - N/A   Clear
4:34 AM 50.0 °F 44.6 °F 82% 30.01 in 10.0 mi WNW 8.1 mph - N/A   Clear
4:55 AM 50.0 °F 44.6 °F 82% 30.02 in 10.0 mi WNW 10.4 mph - N/A   Clear
5:14 AM 50.0 °F 44.6 °F 82% 30.03 in 10.0 mi WNW 11.5 mph 17.3 mph N/A   Clear
5:34 AM 51.8 °F 46.4 °F 82% 30.04 in 10.0 mi WNW 8.1 mph - N/A   Scattered Clouds
5:55 AM 51.8 °F 46.4 °F 82% 30.05 in 10.0 mi NW 11.5 mph 17.3 mph N/A   Overcast
6:14 AM 51.8 °F 46.4 °F 82% 30.06 in 10.0 mi WNW 10.4 mph - N/A   Mostly Cloudy
6:34 AM 51.8 °F 46.4 °F 82% 30.06 in 10.0 mi WNW 9.2 mph - N/A   Scattered Clouds
6:55 AM 50.0 °F 44.6 °F 82% 30.07 in 10.0 mi WNW 8.1 mph - N/A   Scattered Clouds
7:14 AM 50.0 °F 44.6 °F 82% 30.08 in 10.0 mi WNW 8.1 mph - N/A   Clear
7:34 AM 50.0 °F 44.6 °F 82% 30.08 in 10.0 mi WNW 8.1 mph - N/A   Clear
7:55 AM 50.0 °F 44.6 °F 82% 30.09 in 10.0 mi West 8.1 mph - N/A   Clear
8:14 AM 50.0 °F 44.6 °F 82% 30.09 in 10.0 mi WNW 6.9 mph - N/A   Clear
8:34 AM 51.8 °F 46.4 °F 82% 30.10 in 10.0 mi West 8.1 mph - N/A   Clear
8:55 AM 51.8 °F 46.4 °F 82% 30.11 in 10.0 mi West 6.9 mph - N/A   Scattered Clouds
9:14 AM 53.6 °F 48.2 °F 82% 30.11 in 10.0 mi WNW 6.9 mph - N/A   Clear
9:34 AM 53.6 °F 48.2 °F 82% 30.11 in 10.0 mi WNW 4.6 mph - N/A   Clear
9:54 AM 55.4 °F 50.0 °F 82% 30.11 in 10.0 mi West 6.9 mph - N/A   Clear
10:14 AM 57.2 °F 50.0 °F 77% 30.11 in 10.0 mi West 6.9 mph - N/A   Clear
10:54 AM 60.8 °F 51.8 °F 72% 30.11 in 10.0 mi WNW 6.9 mph - N/A   Clear
11:14 AM 60.8 °F 50.0 °F 68% 30.11 in 10.0 mi WNW 8.1 mph - N/A   Clear
11:34 AM 62.6 °F 48.2 °F 59% 30.11 in 10.0 mi West 9.2 mph - N/A   Clear
11:54 AM 62.6 °F 50.0 °F 63% 30.11 in 10.0 mi WNW 9.2 mph - N/A   Clear
12:14 PM 64.4 °F 48.2 °F 56% 30.11 in 10.0 mi WSW 9.2 mph - N/A   Scattered Clouds
12:34 PM 64.4 °F 46.4 °F 52% 30.10 in 10.0 mi WNW 10.4 mph 20.7 mph N/A   Clear
12:54 PM 64.4 °F 48.2 °F 56% 30.10 in 10.0 mi West 10.4 mph - N/A   Clear
1:14 PM 66.2 °F 50.0 °F 56% 30.10 in 10.0 mi West 10.4 mph 19.6 mph N/A   Scattered Clouds
1:34 PM 66.2 °F 50.0 °F 56% 30.09 in 10.0 mi WSW 11.5 mph 17.3 mph N/A   Scattered Clouds
1:54 PM 66.2 °F 48.2 °F 52% 30.09 in 10.0 mi West 10.4 mph - N/A   Scattered Clouds
2:14 PM 66.2 °F 50.0 °F 56% 30.09 in 10.0 mi West 9.2 mph - N/A   Scattered Clouds
2:34 PM 66.2 °F 50.0 °F 56% 30.09 in 10.0 mi WSW 10.4 mph 17.3 mph N/A   Scattered Clouds
2:54 PM 68.0 °F 48.2 °F 49% 30.08 in 10.0 mi West 11.5 mph 19.6 mph N/A   Scattered Clouds
3:14 PM 68.0 °F 48.2 °F 49% 30.07 in 10.0 mi West 11.5 mph 17.3 mph N/A   Scattered Clouds
3:34 PM 69.8 °F 48.2 °F 46% 30.07 in 10.0 mi WSW 12.7 mph 18.4 mph N/A   Scattered Clouds
3:54 PM 69.8 °F 48.2 °F 46% 30.06 in 10.0 mi West 10.4 mph 20.7 mph N/A   Scattered Clouds
4:34 PM 69.8 °F 46.4 °F 43% 30.05 in 10.0 mi WSW 13.8 mph 20.7 mph N/A   Clear
5:14 PM 69.8 °F 46.4 °F 43% 30.03 in 10.0 mi WSW 11.5 mph 17.3 mph N/A   Clear
5:34 PM 69.8 °F 46.4 °F 43% 30.03 in 10.0 mi WSW 13.8 mph - N/A   Clear
5:54 PM 69.8 °F 48.2 °F 46% 30.02 in 10.0 mi WSW 15.0 mph 20.7 mph N/A   Clear
6:14 PM 68.0 °F 48.2 °F 49% 30.01 in 10.0 mi SW 11.5 mph 17.3 mph N/A   Clear
6:34 PM 66.2 °F 50.0 °F 56% 30.03 in 10.0 mi NNW 21.9 mph 27.6 mph N/A   Scattered Clouds
6:54 PM 55.4 °F 50.0 °F 82% 30.03 in 10.0 mi NNW 16.1 mph 26.5 mph 0.05 in Rain Heavy Rain
7:14 PM 55.4 °F 50.0 °F 82% 30.04 in 10.0 mi North 8.1 mph 18.4 mph N/A Rain Light Rain
7:34 PM 53.6 °F 48.2 °F 82% 30.01 in 4.0 mi ESE 5.8 mph - 0.09 in Rain Heavy Rain
7:54 PM 53.6 °F 48.2 °F 82% 30.00 in 10.0 mi SE 5.8 mph - 0.09 in   Scattered Clouds
8:14 PM 53.6 °F 48.2 °F 82% 30.04 in 10.0 mi NNW 5.8 mph - N/A   Scattered Clouds
8:34 PM 53.6 °F 48.2 °F 82% 30.05 in 10.0 mi SW 10.4 mph 17.3 mph 0.03 in Rain Rain
8:54 PM 55.4 °F 50.0 °F 82% 30.04 in 10.0 mi West 5.8 mph - 0.04 in Rain Light Rain
9:14 PM 55.4 °F 50.0 °F 82% 30.05 in 10.0 mi West 4.6 mph - N/A   Mostly Cloudy
9:34 PM 55.4 °F 50.0 °F 82% 30.04 in 10.0 mi WSW 3.5 mph - 0.01 in   Scattered Clouds
9:54 PM 53.6 °F 48.2 °F 82% 30.04 in 10.0 mi SW 4.6 mph - 0.01 in   Clear
10:14 PM 53.6 °F 48.2 °F 82% 30.05 in 10.0 mi SW 6.9 mph - N/A   Clear
10:34 PM 53.6 °F 48.2 °F 82% 30.06 in 10.0 mi WSW 4.6 mph - N/A   Clear
10:54 PM 53.6 °F 48.2 °F 82% 30.06 in 10.0 mi WSW 5.8 mph - N/A   Clear
11:14 PM 53.6 °F 48.2 °F 82% 30.06 in 10.0 mi West 5.8 mph - N/A   Clear
11:34 PM 53.6 °F 48.2 °F 82% 30.07 in 10.0 mi West 6.9 mph - N/A   Clear
11:54 PM 53.6 °F 48.2 °F 82% 30.08 in 10.0 mi West 6.9 mph - N/A   Clear